sensor_id;sensor_type;location;lat;lon;timestamp;P1;durP1;ratioP1;P2;durP2;ratioP2
3369;SDS011;42042;51.948;7.628;2023-07-31T00:02:12;4.70;;;4.40;;
3369;SDS011;42042;51.948;7.628;2023-07-31T00:04:39;5.17;;;4.67;;
3369;SDS011;42042;51.948;7.628;2023-07-31T00:07:07;4.03;;;3.73;;
3369;SDS011;42042;51.948;7.628;2023-07-31T00:09:34;5.10;;;3.90;;
3369;SDS011;42042;51.948;7.628;2023-07-31T00:12:01;3.90;;;3.60;;
3369;SDS011;42042;51.948;7.628;2023-07-31T00:14:28;3.97;;;3.67;;
3369;SDS011;42042;51.948;7.628;2023-07-31T00:16:57;3.33;;;3.03;;
3369;SDS011;42042;51.948;7.628;2023-07-31T00:19:24;3.13;;;2.83;;
3369;SDS011;42042;51.948;7.628;2023-07-31T00:21:51;3.03;;;2.73;;
3369;SDS011;42042;51.948;7.628;2023-07-31T00:24:18;2.80;;;2.57;;
3369;SDS011;42042;51.948;7.628;2023-07-31T00:26:45;2.77;;;2.57;;
3369;SDS011;42042;51.948;7.628;2023-07-31T00:29:13;4.23;;;2.53;;
3369;SDS011;42042;51.948;7.628;2023-07-31T00:31:40;2.57;;;2.37;;
3369;SDS011;42042;51.948;7.628;2023-07-31T00:34:08;3.07;;;2.83;;
3369;SDS011;42042;51.948;7.628;2023-07-31T00:36:35;2.70;;;2.27;;
3369;SDS011;42042;51.948;7.628;2023-07-31T00:39:03;2.43;;;2.23;;
3369;SDS011;42042;51.948;7.628;2023-07-31T00:41:30;2.70;;;2.50;;
3369;SDS011;42042;51.948;7.628;2023-07-31T00:43:57;3.60;;;2.80;;
3369;SDS011;42042;51.948;7.628;2023-07-31T00:46:24;3.07;;;2.50;;
3369;SDS011;42042;51.948;7.628;2023-07-31T00:48:51;2.60;;;2.40;;
3369;SDS011;42042;51.948;7.628;2023-07-31T00:51:20;2.60;;;2.40;;
3369;SDS011;42042;51.948;7.628;2023-07-31T00:53:48;2.27;;;2.07;;
3369;SDS011;42042;51.948;7.628;2023-07-31T00:56:15;2.43;;;2.23;;
3369;SDS011;42042;51.948;7.628;2023-07-31T00:58:42;3.10;;;2.33;;
3369;SDS011;42042;51.948;7.628;2023-07-31T01:01:10;2.60;;;2.40;;
3369;SDS011;42042;51.948;7.628;2023-07-31T01:03:37;4.00;;;1.97;;
3369;SDS011;42042;51.948;7.628;2023-07-31T01:06:08;2.37;;;2.17;;
3369;SDS011;42042;51.948;7.628;2023-07-31T01:08:40;2.73;;;2.30;;
3369;SDS011;42042;51.948;7.628;2023-07-31T01:11:09;4.50;;;2.10;;
3369;SDS011;42042;51.948;7.628;2023-07-31T01:13:42;2.40;;;2.20;;
3369;SDS011;42042;51.948;7.628;2023-07-31T01:16:09;2.40;;;2.20;;
3369;SDS011;42042;51.948;7.628;2023-07-31T01:18:36;2.67;;;1.93;;
3369;SDS011;42042;51.948;7.628;2023-07-31T01:21:06;4.63;;;2.40;;
3369;SDS011;42042;51.948;7.628;2023-07-31T01:24:03;2.07;;;1.87;;
3369;SDS011;42042;51.948;7.628;2023-07-31T01:26:37;2.37;;;2.27;;
3369;SDS011;42042;51.948;7.628;2023-07-31T01:29:07;2.57;;;2.27;;
3369;SDS011;42042;51.948;7.628;2023-07-31T01:31:35;6.60;;;2.30;;
3369;SDS011;42042;51.948;7.628;2023-07-31T01:34:03;2.57;;;2.10;;
3369;SDS011;42042;51.948;7.628;2023-07-31T01:36:31;2.50;;;2.30;;
3369;SDS011;42042;51.948;7.628;2023-07-31T01:38:58;2.87;;;2.57;;
3369;SDS011;42042;51.948;7.628;2023-07-31T01:41:25;2.50;;;2.13;;
3369;SDS011;42042;51.948;7.628;2023-07-31T01:43:54;2.50;;;2.30;;
3369;SDS011;42042;51.948;7.628;2023-07-31T01:46:21;2.60;;;2.27;;
3369;SDS011;42042;51.948;7.628;2023-07-31T01:48:48;4.30;;;2.27;;
3369;SDS011;42042;51.948;7.628;2023-07-31T01:51:16;2.10;;;1.80;;
3369;SDS011;42042;51.948;7.628;2023-07-31T01:53:43;3.67;;;2.27;;
3369;SDS011;42042;51.948;7.628;2023-07-31T01:56:10;2.47;;;1.97;;
3369;SDS011;42042;51.948;7.628;2023-07-31T01:58:37;3.70;;;1.70;;
3369;SDS011;42042;51.948;7.628;2023-07-31T02:01:06;3.67;;;1.70;;
3369;SDS011;42042;51.948;7.628;2023-07-31T02:03:33;3.80;;;1.93;;
3369;SDS011;42042;51.948;7.628;2023-07-31T02:06:00;2.10;;;2.00;;
3369;SDS011;42042;51.948;7.628;2023-07-31T02:08:27;2.30;;;2.10;;
3369;SDS011;42042;51.948;7.628;2023-07-31T02:10:54;2.37;;;2.17;;
3369;SDS011;42042;51.948;7.628;2023-07-31T02:13:22;2.10;;;2.00;;
3369;SDS011;42042;51.948;7.628;2023-07-31T02:15:49;2.70;;;2.50;;
3369;SDS011;42042;51.948;7.628;2023-07-31T02:18:18;2.40;;;2.20;;
3369;SDS011;42042;51.948;7.628;2023-07-31T02:20:48;3.30;;;2.77;;
3369;SDS011;42042;51.948;7.628;2023-07-31T02:23:16;4.17;;;2.90;;
3369;SDS011;42042;51.948;7.628;2023-07-31T02:25:43;4.33;;;3.80;;
3369;SDS011;42042;51.948;7.628;2023-07-31T02:28:10;6.97;;;4.47;;
3369;SDS011;42042;51.948;7.628;2023-07-31T02:30:37;11.67;;;7.53;;
3369;SDS011;42042;51.948;7.628;2023-07-31T02:33:05;12.67;;;7.07;;
3369;SDS011;42042;51.948;7.628;2023-07-31T02:35:33;18.77;;;8.40;;
3369;SDS011;42042;51.948;7.628;2023-07-31T02:38:01;14.53;;;7.90;;
3369;SDS011;42042;51.948;7.628;2023-07-31T02:40:28;11.90;;;8.20;;
3369;SDS011;42042;51.948;7.628;2023-07-31T02:42:55;14.60;;;9.80;;
3369;SDS011;42042;51.948;7.628;2023-07-31T02:45:22;20.70;;;9.00;;
3369;SDS011;42042;51.948;7.628;2023-07-31T02:47:50;18.20;;;9.63;;
3369;SDS011;42042;51.948;7.628;2023-07-31T02:50:17;18.37;;;10.53;;
3369;SDS011;42042;51.948;7.628;2023-07-31T02:52:45;20.33;;;12.33;;
3369;SDS011;42042;51.948;7.628;2023-07-31T02:55:13;17.33;;;10.67;;
3369;SDS011;42042;51.948;7.628;2023-07-31T02:57:40;22.50;;;10.90;;
3369;SDS011;42042;51.948;7.628;2023-07-31T03:00:08;15.93;;;9.77;;
3369;SDS011;42042;51.948;7.628;2023-07-31T03:02:35;21.43;;;8.93;;
3369;SDS011;42042;51.948;7.628;2023-07-31T03:05:02;16.87;;;9.70;;
3369;SDS011;42042;51.948;7.628;2023-07-31T03:07:29;22.10;;;9.37;;
3369;SDS011;42042;51.948;7.628;2023-07-31T03:09:58;18.20;;;9.40;;
3369;SDS011;42042;51.948;7.628;2023-07-31T03:12:25;15.07;;;9.73;;
3369;SDS011;42042;51.948;7.628;2023-07-31T03:14:52;19.17;;;9.87;;
3369;SDS011;42042;51.948;7.628;2023-07-31T03:17:19;14.70;;;9.47;;
3369;SDS011;42042;51.948;7.628;2023-07-31T03:19:47;21.77;;;9.00;;
3369;SDS011;42042;51.948;7.628;2023-07-31T03:22:14;19.03;;;9.33;;
3369;SDS011;42042;51.948;7.628;2023-07-31T03:24:41;20.70;;;9.43;;
3369;SDS011;42042;51.948;7.628;2023-07-31T03:27:10;24.43;;;8.77;;
3369;SDS011;42042;51.948;7.628;2023-07-31T03:29:37;14.93;;;9.57;;
3369;SDS011;42042;51.948;7.628;2023-07-31T03:32:04;14.27;;;8.40;;
3369;SDS011;42042;51.948;7.628;2023-07-31T03:34:32;15.70;;;8.07;;
3369;SDS011;42042;51.948;7.628;2023-07-31T03:36:59;18.90;;;8.87;;
3369;SDS011;42042;51.948;7.628;2023-07-31T03:39:26;19.20;;;8.50;;
3369;SDS011;42042;51.948;7.628;2023-07-31T03:41:53;18.10;;;8.10;;
3369;SDS011;42042;51.948;7.628;2023-07-31T03:44:22;13.40;;;8.43;;
3369;SDS011;42042;51.948;7.628;2023-07-31T03:46:49;18.10;;;7.67;;
3369;SDS011;42042;51.948;7.628;2023-07-31T03:49:16;12.03;;;8.07;;
3369;SDS011;42042;51.948;7.628;2023-07-31T03:51:44;17.03;;;8.03;;
3369;SDS011;42042;51.948;7.628;2023-07-31T03:54:11;13.07;;;7.10;;
3369;SDS011;42042;51.948;7.628;2023-07-31T03:56:39;13.70;;;6.87;;
3369;SDS011;42042;51.948;7.628;2023-07-31T03:59:06;18.87;;;8.47;;
3369;SDS011;42042;51.948;7.628;2023-07-31T04:01:34;14.93;;;8.47;;
3369;SDS011;42042;51.948;7.628;2023-07-31T04:04:02;14.93;;;8.20;;
3369;SDS011;42042;51.948;7.628;2023-07-31T04:06:29;15.77;;;6.37;;
3369;SDS011;42042;51.948;7.628;2023-07-31T04:08:56;17.57;;;7.60;;
3369;SDS011;42042;51.948;7.628;2023-07-31T04:11:23;10.03;;;6.67;;
3369;SDS011;42042;51.948;7.628;2023-07-31T04:13:50;16.63;;;9.30;;
3369;SDS011;42042;51.948;7.628;2023-07-31T04:16:17;18.77;;;8.07;;
3369;SDS011;42042;51.948;7.628;2023-07-31T04:18:46;14.47;;;7.37;;
3369;SDS011;42042;51.948;7.628;2023-07-31T04:21:13;16.13;;;7.70;;
3369;SDS011;42042;51.948;7.628;2023-07-31T04:23:40;13.83;;;7.00;;
3369;SDS011;42042;51.948;7.628;2023-07-31T04:26:07;15.27;;;7.47;;
3369;SDS011;42042;51.948;7.628;2023-07-31T04:28:35;18.00;;;6.57;;
3369;SDS011;42042;51.948;7.628;2023-07-31T04:31:02;15.13;;;7.80;;
3369;SDS011;42042;51.948;7.628;2023-07-31T04:33:30;24.30;;;8.87;;
3369;SDS011;42042;51.948;7.628;2023-07-31T04:35:59;11.03;;;7.40;;
3369;SDS011;42042;51.948;7.628;2023-07-31T04:38:27;13.83;;;6.90;;
3369;SDS011;42042;51.948;7.628;2023-07-31T04:40:54;16.57;;;6.70;;
3369;SDS011;42042;51.948;7.628;2023-07-31T04:43:21;15.07;;;6.37;;
3369;SDS011;42042;51.948;7.628;2023-07-31T04:45:48;13.20;;;6.30;;
3369;SDS011;42042;51.948;7.628;2023-07-31T04:48:16;17.17;;;6.40;;
3369;SDS011;42042;51.948;7.628;2023-07-31T04:50:43;21.10;;;7.00;;
3369;SDS011;42042;51.948;7.628;2023-07-31T04:53:11;8.67;;;5.33;;
3369;SDS011;42042;51.948;7.628;2023-07-31T04:55:38;13.40;;;7.37;;
3369;SDS011;42042;51.948;7.628;2023-07-31T04:58:06;11.57;;;5.90;;
3369;SDS011;42042;51.948;7.628;2023-07-31T05:00:33;11.07;;;6.37;;
3369;SDS011;42042;51.948;7.628;2023-07-31T05:03:00;10.33;;;6.00;;
3369;SDS011;42042;51.948;7.628;2023-07-31T05:05:27;11.37;;;7.10;;
3369;SDS011;42042;51.948;7.628;2023-07-31T05:07:55;17.87;;;7.67;;
3369;SDS011;42042;51.948;7.628;2023-07-31T05:10:23;13.80;;;7.10;;
3369;SDS011;42042;51.948;7.628;2023-07-31T05:12:50;15.97;;;7.07;;
3369;SDS011;42042;51.948;7.628;2023-07-31T05:15:18;14.10;;;6.33;;
3369;SDS011;42042;51.948;7.628;2023-07-31T05:17:45;15.40;;;6.30;;
3369;SDS011;42042;51.948;7.628;2023-07-31T05:20:12;13.60;;;7.03;;
3369;SDS011;42042;51.948;7.628;2023-07-31T05:22:40;16.57;;;7.17;;
3369;SDS011;42042;51.948;7.628;2023-07-31T05:25:08;19.00;;;6.33;;
3369;SDS011;42042;51.948;7.628;2023-07-31T05:27:36;13.90;;;6.53;;
3369;SDS011;42042;51.948;7.628;2023-07-31T05:30:04;14.00;;;6.00;;
3369;SDS011;42042;51.948;7.628;2023-07-31T05:32:31;12.07;;;5.97;;
3369;SDS011;42042;51.948;7.628;2023-07-31T05:34:58;12.47;;;6.30;;
3369;SDS011;42042;51.948;7.628;2023-07-31T05:37:26;14.87;;;6.70;;
3369;SDS011;42042;51.948;7.628;2023-07-31T05:39:53;13.37;;;7.10;;
3369;SDS011;42042;51.948;7.628;2023-07-31T05:42:20;15.37;;;6.77;;
3369;SDS011;42042;51.948;7.628;2023-07-31T05:44:49;14.27;;;6.50;;
3369;SDS011;42042;51.948;7.628;2023-07-31T05:47:16;13.90;;;7.13;;
3369;SDS011;42042;51.948;7.628;2023-07-31T05:49:43;12.93;;;6.47;;
3369;SDS011;42042;51.948;7.628;2023-07-31T05:52:10;12.77;;;7.33;;
3369;SDS011;42042;51.948;7.628;2023-07-31T05:54:37;18.80;;;7.70;;
3369;SDS011;42042;51.948;7.628;2023-07-31T05:57:05;15.87;;;6.43;;
3369;SDS011;42042;51.948;7.628;2023-07-31T05:59:32;15.80;;;6.03;;
3369;SDS011;42042;51.948;7.628;2023-07-31T06:02:01;12.70;;;6.80;;
3369;SDS011;42042;51.948;7.628;2023-07-31T06:04:28;14.37;;;5.83;;
3369;SDS011;42042;51.948;7.628;2023-07-31T06:06:55;17.13;;;6.10;;
3369;SDS011;42042;51.948;7.628;2023-07-31T06:09:22;12.73;;;6.60;;
3369;SDS011;42042;51.948;7.628;2023-07-31T06:11:50;17.67;;;7.30;;
3369;SDS011;42042;51.948;7.628;2023-07-31T06:14:18;13.70;;;6.70;;
3369;SDS011;42042;51.948;7.628;2023-07-31T06:16:45;24.43;;;7.30;;
3369;SDS011;42042;51.948;7.628;2023-07-31T06:19:14;13.50;;;6.67;;
3369;SDS011;42042;51.948;7.628;2023-07-31T06:21:41;13.10;;;7.70;;
3369;SDS011;42042;51.948;7.628;2023-07-31T06:24:09;10.73;;;6.77;;
3369;SDS011;42042;51.948;7.628;2023-07-31T06:26:37;9.60;;;6.43;;
3369;SDS011;42042;51.948;7.628;2023-07-31T06:29:04;13.93;;;6.43;;
3369;SDS011;42042;51.948;7.628;2023-07-31T06:31:32;9.53;;;5.00;;
3369;SDS011;42042;51.948;7.628;2023-07-31T06:33:59;14.17;;;6.07;;
3369;SDS011;42042;51.948;7.628;2023-07-31T06:36:27;12.70;;;6.77;;
3369;SDS011;42042;51.948;7.628;2023-07-31T06:38:54;14.73;;;7.33;;
3369;SDS011;42042;51.948;7.628;2023-07-31T06:41:22;18.83;;;6.47;;
3369;SDS011;42042;51.948;7.628;2023-07-31T06:43:49;15.27;;;7.17;;
3369;SDS011;42042;51.948;7.628;2023-07-31T06:46:16;12.13;;;5.70;;
3369;SDS011;42042;51.948;7.628;2023-07-31T06:48:44;17.43;;;6.77;;
3369;SDS011;42042;51.948;7.628;2023-07-31T06:51:11;13.70;;;6.20;;
3369;SDS011;42042;51.948;7.628;2023-07-31T06:53:39;13.80;;;6.10;;
3369;SDS011;42042;51.948;7.628;2023-07-31T06:56:07;12.47;;;6.13;;
3369;SDS011;42042;51.948;7.628;2023-07-31T06:58:35;12.57;;;6.10;;
3369;SDS011;42042;51.948;7.628;2023-07-31T07:01:02;22.50;;;6.70;;
3369;SDS011;42042;51.948;7.628;2023-07-31T07:03:29;10.30;;;6.00;;
3369;SDS011;42042;51.948;7.628;2023-07-31T07:05:57;12.33;;;7.00;;
3369;SDS011;42042;51.948;7.628;2023-07-31T07:08:24;16.37;;;7.40;;
3369;SDS011;42042;51.948;7.628;2023-07-31T07:10:53;15.70;;;7.80;;
3369;SDS011;42042;51.948;7.628;2023-07-31T07:13:20;13.83;;;7.70;;
3369;SDS011;42042;51.948;7.628;2023-07-31T07:15:48;11.53;;;7.53;;
3369;SDS011;42042;51.948;7.628;2023-07-31T07:18:15;13.93;;;7.33;;
3369;SDS011;42042;51.948;7.628;2023-07-31T07:20:45;17.93;;;7.10;;
3369;SDS011;42042;51.948;7.628;2023-07-31T07:23:13;14.50;;;8.10;;
3369;SDS011;42042;51.948;7.628;2023-07-31T07:25:40;14.47;;;9.60;;
3369;SDS011;42042;51.948;7.628;2023-07-31T07:28:09;13.33;;;7.83;;
3369;SDS011;42042;51.948;7.628;2023-07-31T07:30:36;13.03;;;8.17;;
3369;SDS011;42042;51.948;7.628;2023-07-31T07:33:03;14.30;;;7.93;;
3369;SDS011;42042;51.948;7.628;2023-07-31T07:35:32;14.70;;;8.67;;
3369;SDS011;42042;51.948;7.628;2023-07-31T07:38:00;14.43;;;8.33;;
3369;SDS011;42042;51.948;7.628;2023-07-31T07:40:27;15.33;;;8.97;;
3369;SDS011;42042;51.948;7.628;2023-07-31T07:42:54;14.10;;;9.40;;
3369;SDS011;42042;51.948;7.628;2023-07-31T07:45:23;11.67;;;9.33;;
3369;SDS011;42042;51.948;7.628;2023-07-31T07:47:50;10.83;;;8.10;;
3369;SDS011;42042;51.948;7.628;2023-07-31T07:50:17;11.57;;;9.17;;
3369;SDS011;42042;51.948;7.628;2023-07-31T07:52:44;15.17;;;9.23;;
3369;SDS011;42042;51.948;7.628;2023-07-31T07:55:11;12.07;;;8.90;;
3369;SDS011;42042;51.948;7.628;2023-07-31T07:57:39;9.63;;;8.63;;
3369;SDS011;42042;51.948;7.628;2023-07-31T08:00:06;11.07;;;8.50;;
3369;SDS011;42042;51.948;7.628;2023-07-31T08:02:36;10.03;;;8.90;;
3369;SDS011;42042;51.948;7.628;2023-07-31T08:05:04;10.53;;;8.13;;
3369;SDS011;42042;51.948;7.628;2023-07-31T08:07:31;9.40;;;8.60;;
3369;SDS011;42042;51.948;7.628;2023-07-31T08:09:58;11.03;;;8.50;;
3369;SDS011;42042;51.948;7.628;2023-07-31T08:12:26;10.30;;;8.90;;
3369;SDS011;42042;51.948;7.628;2023-07-31T08:14:53;10.27;;;7.60;;
3369;SDS011;42042;51.948;7.628;2023-07-31T08:17:20;8.40;;;7.57;;
3369;SDS011;42042;51.948;7.628;2023-07-31T08:19:49;9.10;;;7.77;;
3369;SDS011;42042;51.948;7.628;2023-07-31T08:22:16;11.20;;;8.50;;
3369;SDS011;42042;51.948;7.628;2023-07-31T08:24:43;7.97;;;7.17;;
3369;SDS011;42042;51.948;7.628;2023-07-31T08:27:11;8.63;;;7.83;;
3369;SDS011;42042;51.948;7.628;2023-07-31T08:29:38;8.10;;;7.37;;
3369;SDS011;42042;51.948;7.628;2023-07-31T08:32:05;8.10;;;7.30;;
3369;SDS011;42042;51.948;7.628;2023-07-31T08:34:33;10.17;;;6.53;;
3369;SDS011;42042;51.948;7.628;2023-07-31T08:37:01;16.63;;;7.37;;
3369;SDS011;42042;51.948;7.628;2023-07-31T08:39:28;7.43;;;6.70;;
3369;SDS011;42042;51.948;7.628;2023-07-31T08:41:57;7.50;;;6.70;;
3369;SDS011;42042;51.948;7.628;2023-07-31T08:44:25;7.30;;;6.30;;
3369;SDS011;42042;51.948;7.628;2023-07-31T08:46:52;7.60;;;6.90;;
3369;SDS011;42042;51.948;7.628;2023-07-31T08:49:19;9.83;;;8.83;;
3369;SDS011;42042;51.948;7.628;2023-07-31T08:51:47;7.70;;;6.57;;
3369;SDS011;42042;51.948;7.628;2023-07-31T08:54:16;7.33;;;6.57;;
3369;SDS011;42042;51.948;7.628;2023-07-31T08:56:44;6.00;;;5.50;;
3369;SDS011;42042;51.948;7.628;2023-07-31T08:59:12;5.77;;;5.10;;
3369;SDS011;42042;51.948;7.628;2023-07-31T09:01:41;5.07;;;4.67;;
3369;SDS011;42042;51.948;7.628;2023-07-31T09:04:10;6.40;;;5.80;;
3369;SDS011;42042;51.948;7.628;2023-07-31T09:06:39;7.37;;;5.40;;
3369;SDS011;42042;51.948;7.628;2023-07-31T09:09:06;4.90;;;4.50;;
3369;SDS011;42042;51.948;7.628;2023-07-31T09:11:35;5.00;;;4.40;;
3369;SDS011;42042;51.948;7.628;2023-07-31T09:14:03;8.83;;;5.70;;
3369;SDS011;42042;51.948;7.628;2023-07-31T09:16:34;6.43;;;5.57;;
3369;SDS011;42042;51.948;7.628;2023-07-31T09:19:01;5.90;;;5.33;;
3369;SDS011;42042;51.948;7.628;2023-07-31T09:21:30;6.10;;;5.50;;
3369;SDS011;42042;51.948;7.628;2023-07-31T09:23:57;7.23;;;5.37;;
3369;SDS011;42042;51.948;7.628;2023-07-31T09:26:31;6.37;;;5.63;;
3369;SDS011;42042;51.948;7.628;2023-07-31T09:29:00;6.93;;;5.10;;
3369;SDS011;42042;51.948;7.628;2023-07-31T09:31:40;6.23;;;5.63;;
3369;SDS011;42042;51.948;7.628;2023-07-31T09:34:08;6.30;;;5.70;;
3369;SDS011;42042;51.948;7.628;2023-07-31T09:36:39;4.97;;;4.57;;
3369;SDS011;42042;51.948;7.628;2023-07-31T09:39:07;6.60;;;5.23;;
3369;SDS011;42042;51.948;7.628;2023-07-31T09:41:36;5.47;;;4.97;;
3369;SDS011;42042;51.948;7.628;2023-07-31T09:44:05;5.40;;;4.90;;
3369;SDS011;42042;51.948;7.628;2023-07-31T09:46:33;5.10;;;4.70;;
3369;SDS011;42042;51.948;7.628;2023-07-31T09:49:08;5.90;;;5.40;;
3369;SDS011;42042;51.948;7.628;2023-07-31T09:51:36;6.23;;;5.57;;
3369;SDS011;42042;51.948;7.628;2023-07-31T09:54:08;5.10;;;4.70;;
3369;SDS011;42042;51.948;7.628;2023-07-31T09:56:37;8.03;;;5.90;;
3369;SDS011;42042;51.948;7.628;2023-07-31T09:59:06;6.10;;;5.10;;
3369;SDS011;42042;51.948;7.628;2023-07-31T10:01:34;6.43;;;5.90;;
3369;SDS011;42042;51.948;7.628;2023-07-31T10:04:02;5.90;;;5.33;;
3369;SDS011;42042;51.948;7.628;2023-07-31T10:06:32;5.40;;;5.00;;
3369;SDS011;42042;51.948;7.628;2023-07-31T10:09:00;7.00;;;5.27;;
3369;SDS011;42042;51.948;7.628;2023-07-31T10:11:28;4.97;;;4.57;;
3369;SDS011;42042;51.948;7.628;2023-07-31T10:13:57;4.90;;;4.50;;
3369;SDS011;42042;51.948;7.628;2023-07-31T10:16:26;5.17;;;4.77;;
3369;SDS011;42042;51.948;7.628;2023-07-31T10:18:56;8.50;;;6.13;;
3369;SDS011;42042;51.948;7.628;2023-07-31T10:21:23;5.07;;;4.67;;
3369;SDS011;42042;51.948;7.628;2023-07-31T10:23:53;4.47;;;4.07;;
3369;SDS011;42042;51.948;7.628;2023-07-31T10:26:21;4.43;;;4.03;;
3369;SDS011;42042;51.948;7.628;2023-07-31T10:28:50;4.40;;;4.10;;
3369;SDS011;42042;51.948;7.628;2023-07-31T10:31:17;5.93;;;5.10;;
3369;SDS011;42042;51.948;7.628;2023-07-31T10:33:47;5.80;;;5.30;;
3369;SDS011;42042;51.948;7.628;2023-07-31T10:36:14;5.93;;;5.33;;
3369;SDS011;42042;51.948;7.628;2023-07-31T10:38:43;5.87;;;5.27;;
3369;SDS011;42042;51.948;7.628;2023-07-31T10:41:11;6.13;;;5.60;;
3369;SDS011;42042;51.948;7.628;2023-07-31T10:43:38;6.40;;;5.80;;
3369;SDS011;42042;51.948;7.628;2023-07-31T10:46:06;6.60;;;6.07;;
3369;SDS011;42042;51.948;7.628;2023-07-31T10:48:34;6.37;;;5.77;;
3369;SDS011;42042;51.948;7.628;2023-07-31T10:51:08;5.47;;;5.03;;
3369;SDS011;42042;51.948;7.628;2023-07-31T10:53:39;6.40;;;5.90;;
3369;SDS011;42042;51.948;7.628;2023-07-31T10:56:07;8.70;;;5.60;;
3369;SDS011;42042;51.948;7.628;2023-07-31T10:58:35;7.13;;;6.17;;
3369;SDS011;42042;51.948;7.628;2023-07-31T11:01:03;6.57;;;5.73;;
3369;SDS011;42042;51.948;7.628;2023-07-31T11:03:43;6.73;;;5.90;;
3369;SDS011;42042;51.948;7.628;2023-07-31T11:06:12;5.53;;;5.10;;
3369;SDS011;42042;51.948;7.628;2023-07-31T11:08:43;6.20;;;5.63;;
3369;SDS011;42042;51.948;7.628;2023-07-31T11:11:10;5.80;;;5.30;;
3369;SDS011;42042;51.948;7.628;2023-07-31T11:13:42;5.90;;;5.40;;
3369;SDS011;42042;51.948;7.628;2023-07-31T11:16:14;7.23;;;5.90;;
3369;SDS011;42042;51.948;7.628;2023-07-31T11:18:41;7.20;;;6.50;;
3369;SDS011;42042;51.948;7.628;2023-07-31T11:21:13;7.27;;;6.57;;
3369;SDS011;42042;51.948;7.628;2023-07-31T11:23:40;6.63;;;6.10;;
3369;SDS011;42042;51.948;7.628;2023-07-31T11:26:07;6.60;;;6.10;;
3369;SDS011;42042;51.948;7.628;2023-07-31T11:28:35;5.87;;;5.37;;
3369;SDS011;42042;51.948;7.628;2023-07-31T11:31:03;7.27;;;5.20;;
3369;SDS011;42042;51.948;7.628;2023-07-31T11:33:30;6.30;;;5.80;;
3369;SDS011;42042;51.948;7.628;2023-07-31T11:35:57;5.80;;;5.40;;
3369;SDS011;42042;51.948;7.628;2023-07-31T11:38:27;6.10;;;5.67;;
3369;SDS011;42042;51.948;7.628;2023-07-31T11:40:55;6.23;;;5.73;;
3369;SDS011;42042;51.948;7.628;2023-07-31T11:43:22;6.30;;;5.80;;
3369;SDS011;42042;51.948;7.628;2023-07-31T11:45:52;7.00;;;6.50;;
3369;SDS011;42042;51.948;7.628;2023-07-31T11:48:20;7.80;;;6.50;;
3369;SDS011;42042;51.948;7.628;2023-07-31T11:50:47;8.40;;;7.70;;
3369;SDS011;42042;51.948;7.628;2023-07-31T11:53:16;9.47;;;8.57;;
3369;SDS011;42042;51.948;7.628;2023-07-31T11:55:45;8.43;;;7.80;;
3369;SDS011;42042;51.948;7.628;2023-07-31T11:58:13;12.23;;;8.73;;
3369;SDS011;42042;51.948;7.628;2023-07-31T12:00:41;9.50;;;8.57;;
3369;SDS011;42042;51.948;7.628;2023-07-31T12:03:08;10.57;;;9.67;;
3369;SDS011;42042;51.948;7.628;2023-07-31T12:05:36;11.30;;;10.27;;
3369;SDS011;42042;51.948;7.628;2023-07-31T12:08:08;11.10;;;10.10;;
3369;SDS011;42042;51.948;7.628;2023-07-31T12:10:36;12.13;;;11.03;;
3369;SDS011;42042;51.948;7.628;2023-07-31T12:13:07;11.60;;;10.40;;
3369;SDS011;42042;51.948;7.628;2023-07-31T12:15:39;14.73;;;11.37;;
3369;SDS011;42042;51.948;7.628;2023-07-31T12:18:07;11.67;;;10.77;;
3369;SDS011;42042;51.948;7.628;2023-07-31T12:20:35;12.70;;;10.80;;
3369;SDS011;42042;51.948;7.628;2023-07-31T12:23:02;11.07;;;9.97;;
3369;SDS011;42042;51.948;7.628;2023-07-31T12:25:30;10.93;;;10.13;;
3369;SDS011;42042;51.948;7.628;2023-07-31T12:27:57;9.67;;;8.77;;
3369;SDS011;42042;51.948;7.628;2023-07-31T12:30:31;9.80;;;8.13;;
3369;SDS011;42042;51.948;7.628;2023-07-31T12:33:02;10.60;;;8.40;;
3369;SDS011;42042;51.948;7.628;2023-07-31T12:35:34;8.77;;;7.87;;
3369;SDS011;42042;51.948;7.628;2023-07-31T12:38:01;7.90;;;7.30;;
3369;SDS011;42042;51.948;7.628;2023-07-31T12:40:29;7.33;;;6.53;;
3369;SDS011;42042;51.948;7.628;2023-07-31T12:42:56;6.93;;;6.17;;
3369;SDS011;42042;51.948;7.628;2023-07-31T12:45:23;8.27;;;7.40;;
3369;SDS011;42042;51.948;7.628;2023-07-31T12:47:52;7.20;;;6.50;;
3369;SDS011;42042;51.948;7.628;2023-07-31T12:50:19;7.13;;;6.40;;
3369;SDS011;42042;51.948;7.628;2023-07-31T12:52:46;5.70;;;5.30;;
3369;SDS011;42042;51.948;7.628;2023-07-31T12:55:13;6.50;;;5.90;;
3369;SDS011;42042;51.948;7.628;2023-07-31T12:57:41;6.20;;;5.70;;
3369;SDS011;42042;51.948;7.628;2023-07-31T13:00:09;7.00;;;6.37;;
3369;SDS011;42042;51.948;7.628;2023-07-31T13:02:36;6.50;;;6.00;;
3369;SDS011;42042;51.948;7.628;2023-07-31T13:05:05;6.27;;;5.67;;
3369;SDS011;42042;51.948;7.628;2023-07-31T13:07:32;6.60;;;5.90;;
3369;SDS011;42042;51.948;7.628;2023-07-31T13:09:59;7.73;;;7.00;;
3369;SDS011;42042;51.948;7.628;2023-07-31T13:12:29;6.60;;;6.10;;
3369;SDS011;42042;51.948;7.628;2023-07-31T13:14:57;6.10;;;5.50;;
3369;SDS011;42042;51.948;7.628;2023-07-31T13:17:24;6.43;;;5.90;;
3369;SDS011;42042;51.948;7.628;2023-07-31T13:19:51;6.90;;;5.67;;
3369;SDS011;42042;51.948;7.628;2023-07-31T13:22:20;6.70;;;6.10;;
3369;SDS011;42042;51.948;7.628;2023-07-31T13:24:47;6.53;;;6.03;;
3369;SDS011;42042;51.948;7.628;2023-07-31T13:27:14;6.00;;;5.50;;
3369;SDS011;42042;51.948;7.628;2023-07-31T13:29:43;8.33;;;5.90;;
3369;SDS011;42042;51.948;7.628;2023-07-31T13:32:11;8.77;;;7.67;;
3369;SDS011;42042;51.948;7.628;2023-07-31T13:34:38;7.63;;;6.93;;
3369;SDS011;42042;51.948;7.628;2023-07-31T13:37:05;8.03;;;7.43;;
3369;SDS011;42042;51.948;7.628;2023-07-31T13:39:34;14.13;;;8.03;;
3369;SDS011;42042;51.948;7.628;2023-07-31T13:42:02;8.83;;;8.03;;
3369;SDS011;42042;51.948;7.628;2023-07-31T13:44:31;10.10;;;7.23;;
3369;SDS011;42042;51.948;7.628;2023-07-31T13:46:59;7.73;;;7.03;;
3369;SDS011;42042;51.948;7.628;2023-07-31T13:49:26;12.53;;;8.13;;
3369;SDS011;42042;51.948;7.628;2023-07-31T13:51:53;7.50;;;6.80;;
3369;SDS011;42042;51.948;7.628;2023-07-31T13:54:20;7.50;;;6.80;;
3369;SDS011;42042;51.948;7.628;2023-07-31T13:56:49;7.23;;;6.53;;
3369;SDS011;42042;51.948;7.628;2023-07-31T13:59:16;6.80;;;6.20;;
3369;SDS011;42042;51.948;7.628;2023-07-31T14:01:43;6.87;;;6.30;;
3369;SDS011;42042;51.948;7.628;2023-07-31T14:04:11;6.97;;;6.30;;
3369;SDS011;42042;51.948;7.628;2023-07-31T14:06:38;7.20;;;6.60;;
3369;SDS011;42042;51.948;7.628;2023-07-31T14:09:06;6.63;;;6.13;;
3369;SDS011;42042;51.948;7.628;2023-07-31T14:11:33;6.13;;;5.63;;
3369;SDS011;42042;51.948;7.628;2023-07-31T14:14:01;7.03;;;6.43;;
3369;SDS011;42042;51.948;7.628;2023-07-31T14:16:29;6.27;;;5.70;;
3369;SDS011;42042;51.948;7.628;2023-07-31T14:18:56;7.10;;;6.50;;
3369;SDS011;42042;51.948;7.628;2023-07-31T14:21:24;6.50;;;6.00;;
3369;SDS011;42042;51.948;7.628;2023-07-31T14:23:52;6.13;;;5.63;;
3369;SDS011;42042;51.948;7.628;2023-07-31T14:26:19;5.20;;;4.70;;
3369;SDS011;42042;51.948;7.628;2023-07-31T14:28:46;5.27;;;4.73;;
3369;SDS011;42042;51.948;7.628;2023-07-31T14:31:15;4.87;;;4.47;;
3369;SDS011;42042;51.948;7.628;2023-07-31T14:33:42;5.53;;;5.07;;
3369;SDS011;42042;51.948;7.628;2023-07-31T14:36:09;5.87;;;5.33;;
3369;SDS011;42042;51.948;7.628;2023-07-31T14:38:37;8.40;;;4.87;;
3369;SDS011;42042;51.948;7.628;2023-07-31T14:41:04;6.03;;;5.50;;
3369;SDS011;42042;51.948;7.628;2023-07-31T14:43:31;6.77;;;5.70;;
3369;SDS011;42042;51.948;7.628;2023-07-31T14:45:58;8.03;;;6.03;;
3369;SDS011;42042;51.948;7.628;2023-07-31T14:48:27;6.77;;;5.60;;
3369;SDS011;42042;51.948;7.628;2023-07-31T14:50:55;9.30;;;7.13;;
3369;SDS011;42042;51.948;7.628;2023-07-31T14:53:22;7.43;;;6.83;;
3369;SDS011;42042;51.948;7.628;2023-07-31T14:55:49;7.87;;;7.17;;
3369;SDS011;42042;51.948;7.628;2023-07-31T14:58:16;8.87;;;7.80;;
3369;SDS011;42042;51.948;7.628;2023-07-31T15:00:44;9.90;;;7.97;;